Time;durP1;ratioP1;P1;durP2;ratioP2;P2;SDS_P1;SDS_P2;PMS_P1;PMS_P2;Temp;Humidity;BMP_temperature;BMP_pressure;BME280_temperature;BME280_humidity;BME280_pressure;Samples;Min_cycle;Max_cycle;Signal;HPM_P1;HPM_P2
2022/05/01 00:01:10;;;;;;;7.35;3.95;;;4.30;99.90;;;;;;4973317;28;20026;-67
2022/05/01 00:03:36;;;;;;;8.05;4.13;;;4.30;99.90;;;;;;4972749;28;20027;-66
2022/05/01 00:06:06;;;;;;;8.35;3.88;;;4.20;99.90;;;;;;4972881;28;20030;-66
2022/05/01 00:08:33;;;;;;;7.03;4.60;;;4.20;99.90;;;;;;4972785;28;20026;-66
2022/05/01 00:11:00;;;;;;;7.47;4.07;;;4.20;99.90;;;;;;4972927;28;20027;-66
2022/05/01 00:13:26;;;;;;;6.47;3.65;;;4.20;99.90;;;;;;4972774;28;20109;-67
2022/05/01 00:15:53;;;;;;;7.45;4.38;;;4.20;99.90;;;;;;4972721;28;20494;-67
2022/05/01 00:18:19;;;;;;;6.97;4.38;;;4.20;99.90;;;;;;4973146;28;20086;-67
2022/05/01 00:20:45;;;;;;;10.65;5.07;;;4.20;99.90;;;;;;4972755;28;20054;-67
2022/05/01 00:23:12;;;;;;;9.82;5.57;;;4.20;99.90;;;;;;4973175;28;20049;-67
2022/05/01 00:25:41;;;;;;;10.98;5.40;;;4.10;99.90;;;;;;4972784;28;20023;-67
2022/05/01 00:28:17;;;;;;;10.27;5.40;;;4.00;99.90;;;;;;4972978;28;20375;-67
2022/05/01 00:30:43;;;;;;;8.25;5.22;;;4.00;99.90;;;;;;4973112;28;20038;-67
2022/05/01 00:38:38;;;;;;;12.10;7.25;;;3.90;99.90;;;;;;4972619;28;20101;-67
2022/05/01 00:41:11;;;;;;;11.55;7.13;;;3.80;99.90;;;;;;4972721;28;20027;-67
2022/05/01 00:43:55;;;;;;;10.82;6.97;;;3.80;99.90;;;;;;4972572;28;20449;-68
2022/05/01 00:46:21;;;;;;;11.73;7.22;;;3.70;99.90;;;;;;4972641;28;20037;-67
2022/05/01 00:48:47;;;;;;;15.05;7.57;;;3.70;99.90;;;;;;4955162;28;20105;-66
2022/05/01 00:51:13;;;;;;;12.57;7.57;;;3.70;99.90;;;;;;4972630;28;20082;-67
2022/05/01 00:53:39;;;;;;;13.07;7.05;;;3.80;99.90;;;;;;4972533;28;20038;-67
2022/05/01 00:56:06;;;;;;;11.18;6.63;;;3.80;99.90;;;;;;4972443;28;20510;-67
2022/05/01 00:58:32;;;;;;;12.55;6.55;;;3.80;99.90;;;;;;4972329;28;20027;-66
2022/05/01 01:00:58;;;;;;;9.48;5.78;;;3.80;99.90;;;;;;4972450;28;20513;-67
2022/05/01 01:03:24;;;;;;;10.20;5.20;;;3.90;99.90;;;;;;4972396;28;20042;-67
2022/05/01 01:05:49;;;;;;;7.97;5.00;;;3.90;99.90;;;;;;4975113;28;20138;-67
2022/05/01 01:08:15;;;;;;;9.73;5.43;;;3.90;99.90;;;;;;4975868;28;20073;-67
2022/05/01 01:10:41;;;;;;;8.63;5.05;;;3.80;99.90;;;;;;4975742;28;20019;-67
2022/05/01 01:13:06;;;;;;;9.15;5.40;;;3.80;99.90;;;;;;4975742;28;20039;-67
2022/05/01 01:15:34;;;;;;;8.60;4.68;;;3.80;99.90;;;;;;4975608;28;20188;-67
2022/05/01 01:17:59;;;;;;;8.07;4.75;;;3.70;99.90;;;;;;4975705;28;20023;-67
2022/05/01 01:20:27;;;;;;;9.88;5.40;;;3.70;99.90;;;;;;4975705;28;20026;-67
2022/05/01 01:22:55;;;;;;;10.07;5.57;;;3.70;99.90;;;;;;4975410;28;20380;-67
2022/05/01 01:25:24;;;;;;;9.38;5.38;;;3.60;99.90;;;;;;4975852;28;20360;-67
2022/05/01 01:27:50;;;;;;;10.05;4.80;;;3.60;99.90;;;;;;4975691;28;20432;-67
2022/05/01 01:33:02;;;;;;;9.90;5.28;;;3.60;99.90;;;;;;4975533;28;20529;-67
2022/05/01 01:35:29;;;;;;;7.97;4.70;;;3.60;99.90;;;;;;4975646;28;20027;-67
2022/05/01 01:37:56;;;;;;;9.68;5.05;;;3.50;99.90;;;;;;4975020;28;20577;-67
2022/05/01 01:40:45;;;;;;;10.13;5.35;;;3.50;99.90;;;;;;4975401;28;20143;-68
2022/05/01 01:43:12;;;;;;;8.13;4.60;;;3.60;99.90;;;;;;4975546;28;20023;-67
2022/05/01 01:45:38;;;;;;;5.78;4.05;;;3.50;99.90;;;;;;4975426;28;20174;-67
2022/05/01 01:48:14;;;;;;;7.05;4.53;;;3.50;99.90;;;;;;4975129;28;20030;-67
2022/05/01 01:50:41;;;;;;;8.23;4.57;;;3.50;99.90;;;;;;4975084;28;20061;-67
2022/05/01 01:53:07;;;;;;;6.82;4.30;;;3.40;99.90;;;;;;4975323;28;20049;-67
2022/05/01 01:55:33;;;;;;;7.80;4.13;;;3.40;99.90;;;;;;4975394;28;20027;-67
2022/05/01 01:57:59;;;;;;;7.28;4.65;;;3.40;99.90;;;;;;4975058;28;20433;-67
2022/05/01 02:00:25;;;;;;;8.40;5.10;;;3.40;99.90;;;;;;4981112;28;20026;-67
2022/05/01 02:03:01;;;;;;;10.35;4.95;;;3.40;99.90;;;;;;4975051;28;20090;-66
2022/05/01 02:05:27;;;;;;;7.20;4.30;;;3.40;99.90;;;;;;4974806;28;20027;-66
2022/05/01 02:07:53;;;;;;;9.27;4.32;;;3.40;99.90;;;;;;4974680;28;20494;-66
2022/05/01 02:10:20;;;;;;;8.13;4.05;;;3.40;99.90;;;;;;4975042;28;20030;-66
2022/05/01 02:12:46;;;;;;;6.82;3.58;;;3.30;99.90;;;;;;4974766;28;20037;-66
2022/05/01 02:15:12;;;;;;;6.15;3.25;;;3.30;99.90;;;;;;4974592;28;20023;-66
2022/05/01 02:17:39;;;;;;;7.85;3.30;;;3.30;99.90;;;;;;4974720;28;20386;-67
2022/05/01 02:20:06;;;;;;;6.18;3.22;;;3.30;99.90;;;;;;4974904;28;20085;-67
2022/05/01 02:22:31;;;;;;;7.88;3.50;;;3.30;99.90;;;;;;4957121;28;20031;-67
2022/05/01 02:56:26;;;;;;;5.22;3.90;;;3.20;99.90;;;;;;4978631;28;20085;-67
2022/05/01 02:58:52;;;;;;;5.20;2.88;;;3.20;99.90;;;;;;4956375;28;20034;-67
2022/05/01 03:01:18;;;;;;;5.47;3.50;;;3.20;99.90;;;;;;4973911;28;20029;-67
2022/05/01 03:37:23;;;;;;;3.55;2.20;;;3.90;99.90;;;;;;5647391;23;20483;-67
2022/05/01 03:39:49;;;;;;;4.47;2.47;;;4.10;99.90;;;;;;4973555;28;20027;-67
2022/05/01 03:42:15;;;;;;;5.03;2.25;;;4.40;99.90;;;;;;4973065;28;20019;-67
2022/05/01 03:44:40;;;;;;;4.60;2.00;;;4.70;99.90;;;;;;4972991;28;20035;-67
2022/05/01 03:47:06;;;;;;;3.70;2.17;;;5.00;99.90;;;;;;4973012;28;20050;-67
2022/05/01 03:49:32;;;;;;;3.75;1.95;;;5.20;99.90;;;;;;4973141;28;20089;-67
2022/05/01 03:51:57;;;;;;;2.33;1.90;;;5.50;99.90;;;;;;4972826;28;20375;-67
2022/05/01 03:54:24;;;;;;;2.22;1.67;;;5.80;99.90;;;;;;4972994;28;20041;-67
2022/05/01 03:56:50;;;;;;;2.80;1.73;;;6.00;99.90;;;;;;4973361;28;20039;-67
2022/05/01 03:59:15;;;;;;;2.25;1.50;;;6.20;99.90;;;;;;4972861;28;20031;-67
2022/05/01 04:01:42;;;;;;;2.28;1.40;;;6.50;99.90;;;;;;4973099;28;20059;-67
2022/05/01 04:04:08;;;;;;;2.45;1.67;;;6.70;98.70;;;;;;4972850;28;20030;-67
2022/05/01 04:06:34;;;;;;;2.20;1.40;;;6.90;96.80;;;;;;4972938;28;20374;-67
2022/05/01 04:09:00;;;;;;;2.55;1.23;;;7.10;94.60;;;;;;4972812;28;20549;-66
2022/05/01 04:11:26;;;;;;;2.38;1.08;;;7.30;92.70;;;;;;4972931;28;20023;-66
2022/05/01 04:13:51;;;;;;;1.20;1.10;;;7.40;92.10;;;;;;4972826;28;20097;-66
2022/05/01 04:16:17;;;;;;;2.42;1.33;;;7.60;91.50;;;;;;4972797;28;20029;-66
2022/05/01 04:18:43;;;;;;;1.10;0.85;;;7.90;90.00;;;;;;4972813;28;20038;-66
2022/05/01 04:21:10;;;;;;;3.35;1.17;;;8.20;85.40;;;;;;4972775;28;20023;-66
2022/05/01 04:23:37;;;;;;;1.33;0.90;;;8.40;83.30;;;;;;4973418;28;20106;-66
2022/05/01 04:26:03;;;;;;;1.85;0.90;;;8.50;81.80;;;;;;4972791;28;20125;-66
2022/05/01 04:28:29;;;;;;;2.72;1.10;;;8.80;79.80;;;;;;4973100;28;20031;-66
2022/05/01 04:30:55;;;;;;;2.17;0.90;;;9.00;77.60;;;;;;4972964;28;20030;-66
2022/05/01 04:33:21;;;;;;;2.17;1.30;;;9.10;76.10;;;;;;4955320;28;20035;-66
2022/05/01 04:35:50;;;;;;;1.85;1.00;;;9.10;76.40;;;;;;4972815;28;20031;-66
2022/05/01 04:38:19;;;;;;;2.10;1.00;;;9.30;74.80;;;;;;4972369;28;20039;-65
2022/05/01 04:40:46;;;;;;;7.75;1.52;;;9.50;73.20;;;;;;4975366;28;20023;-66
2022/05/01 04:43:14;;;;;;;1.88;0.70;;;9.80;78.00;;;;;;4958913;28;20390;-66
2022/05/01 04:45:41;;;;;;;2.20;0.98;;;10.90;77.80;;;;;;4976048;28;20023;-66
2022/05/01 04:48:08;;;;;;;1.90;0.80;;;11.00;69.60;;;;;;4972602;28;20512;-66
2022/05/01 04:50:35;;;;;;;3.90;0.80;;;10.80;68.20;;;;;;4955043;28;20035;-65
2022/05/01 04:53:02;;;;;;;3.10;0.77;;;10.80;67.10;;;;;;4965144;28;20035;-65
2022/05/01 04:55:31;;;;;;;0.93;0.55;;;10.70;66.40;;;;;;4969323;28;20103;-67
2022/05/01 04:57:57;;;;;;;1.40;0.60;;;10.70;65.80;;;;;;4974608;28;20037;-65
2022/05/01 05:00:23;;;;;;;1.52;0.80;;;10.80;65.20;;;;;;4966561;28;20034;-65
2022/05/01 05:02:53;;;;;;;3.08;0.80;;;10.90;64.30;;;;;;4966905;28;20023;-66
2022/05/01 05:05:20;;;;;;;1.20;0.80;;;11.10;64.40;;;;;;4969991;28;20066;-66
2022/05/01 05:07:46;;;;;;;1.05;0.85;;;11.20;62.40;;;;;;4972751;28;20023;-66
2022/05/01 05:10:14;;;;;;;2.63;0.60;;;11.30;62.60;;;;;;4962529;28;20101;-67
2022/05/01 05:12:42;;;;;;;0.80;0.50;;;11.40;62.50;;;;;;4975116;28;20041;-67
2022/05/01 05:15:12;;;;;;;1.33;0.60;;;11.50;60.90;;;;;;4967752;28;20023;-66
2022/05/01 05:17:38;;;;;;;;;;;11.60;61.10;;;;;;4956179;29;20035;-68
2022/05/01 05:20:05;;;;;;;2.95;0.50;;;11.70;61.50;;;;;;4955940;29;19911;-65
2022/05/01 05:22:31;;;;;;;0.98;0.68;;;12.60;66.10;;;;;;4956383;29;20032;-66
2022/05/01 05:24:57;;;;;;;0.75;0.50;;;12.60;60.60;;;;;;4956342;29;20027;-66
2022/05/01 05:27:25;;;;;;;0.70;0.50;;;12.40;59.10;;;;;;4956152;29;20479;-66
2022/05/01 05:29:53;;;;;;;1.98;0.70;;;12.10;59.70;;;;;;4956588;29;20031;-66
2022/05/01 05:32:19;;;;;;;1.45;0.50;;;12.00;59.50;;;;;;4956296;29;20059;-66
2022/05/01 05:34:44;;;;;;;2.58;0.70;;;12.00;59.00;;;;;;4956258;29;20031;-66
2022/05/01 05:37:10;;;;;;;0.50;0.40;;;12.10;58.80;;;;;;4955967;28;20109;-67
2022/05/01 05:39:36;;;;;;;1.50;0.60;;;11.90;58.40;;;;;;4956056;29;20031;-66
2022/05/01 05:42:02;;;;;;;1.10;0.50;;;11.70;58.70;;;;;;4956123;29;20023;-66
2022/05/01 05:44:27;;;;;;;1.90;0.50;;;11.40;58.70;;;;;;4956246;29;20038;-67
2022/05/01 05:46:53;;;;;;;0.82;0.73;;;11.30;58.70;;;;;;4956087;29;20651;-67
2022/05/01 05:49:19;;;;;;;0.40;0.40;;;11.40;59.30;;;;;;4955933;29;20027;-66
2022/05/01 05:51:45;;;;;;;0.88;0.50;;;11.60;59.00;;;;;;4955883;28;20023;-66
2022/05/01 05:54:10;;;;;;;1.25;0.60;;;11.80;58.80;;;;;;4955628;29;20046;-65
2022/05/01 05:56:36;;;;;;;1.50;0.60;;;12.00;60.40;;;;;;4955782;29;20019;-65
2022/05/01 05:59:02;;;;;;;0.40;0.40;;;12.10;58.20;;;;;;4955831;29;20031;-64
2022/05/01 06:01:28;;;;;;;1.52;0.55;;;12.20;57.50;;;;;;4955692;29;20025;-65
2022/05/01 06:03:54;;;;;;;1.20;0.45;;;12.20;58.50;;;;;;4955793;29;20035;-65
2022/05/01 06:06:19;;;;;;;0.85;0.50;;;12.40;58.70;;;;;;4955548;29;20042;-64
2022/05/01 06:08:45;;;;;;;0.68;0.50;;;12.40;58.10;;;;;;4955597;29;20027;-65
2022/05/01 06:11:11;;;;;;;1.25;0.50;;;12.50;57.80;;;;;;4955469;29;20026;-66
2022/05/01 06:13:37;;;;;;;1.13;0.52;;;12.60;57.90;;;;;;4955374;29;20553;-66
2022/05/01 06:16:03;;;;;;;0.30;0.30;;;12.70;56.70;;;;;;4955439;29;20039;-66
2022/05/01 06:18:29;;;;;;;0.73;0.60;;;12.70;56.30;;;;;;4962325;28;20058;-66
2022/05/01 06:20:55;;;;;;;0.80;0.40;;;12.60;56.30;;;;;;4971411;28;20034;-66
2022/05/01 06:23:22;;;;;;;1.42;0.40;;;12.50;56.00;;;;;;4974319;28;20031;-66
2022/05/01 06:25:49;;;;;;;1.40;0.43;;;12.60;56.50;;;;;;4974536;28;20033;-63
2022/05/01 06:28:15;;;;;;;0.50;0.40;;;12.60;56.00;;;;;;4974505;28;20042;-64
2022/05/01 06:30:45;;;;;;;0.70;0.50;;;12.70;56.80;;;;;;4974705;28;20113;-64
2022/05/01 06:33:21;;;;;;;0.85;0.60;;;12.90;56.60;;;;;;4974556;28;20038;-64
2022/05/01 06:35:53;;;;;;;1.52;0.60;;;12.90;56.10;;;;;;4957215;28;20101;-66
2022/05/01 06:38:19;;;;;;;1.20;0.70;;;12.80;55.20;;;;;;4974043;28;20097;-65
2022/05/01 06:40:46;;;;;;;1.95;0.50;;;12.80;56.10;;;;;;4974390;28;20035;-65
2022/05/01 06:43:13;;;;;;;1.95;0.70;;;12.70;55.80;;;;;;4970831;28;20027;-64
2022/05/01 06:45:41;;;;;;;1.40;0.50;;;12.50;54.90;;;;;;4974042;28;20472;-63
2022/05/01 06:48:11;;;;;;;0.40;0.40;;;12.50;55.50;;;;;;4956777;28;20026;-66
2022/05/01 06:50:38;;;;;;;1.60;0.50;;;12.60;55.60;;;;;;4974074;28;20033;-66
2022/05/01 06:53:05;;;;;;;0.68;0.50;;;12.90;64.20;;;;;;4973867;28;20047;-66
2022/05/01 06:55:31;;;;;;;1.02;0.90;;;13.90;65.10;;;;;;4956923;28;20027;-66
2022/05/01 06:57:57;;;;;;;2.25;0.70;;;14.90;66.70;;;;;;4974195;28;20470;-66
2022/05/01 07:00:23;;;;;;;1.88;0.50;;;15.50;64.80;;;;;;4974146;28;20034;-65
2022/05/01 07:02:52;;;;;;;2.13;0.88;;;15.80;62.20;;;;;;4973262;28;20019;-65
2022/05/01 07:05:19;;;;;;;1.40;0.52;;;16.00;60.90;;;;;;4974024;28;20031;-65
2022/05/01 07:07:46;;;;;;;2.63;0.55;;;15.80;59.50;;;;;;4974211;28;20026;-65
2022/05/01 07:10:12;;;;;;;2.45;0.40;;;15.30;55.20;;;;;;4973748;28;20030;-65
2022/05/01 07:12:38;;;;;;;0.65;0.35;;;15.40;59.30;;;;;;4973885;28;20046;-65
2022/05/01 07:15:04;;;;;;;0.52;0.40;;;15.50;60.20;;;;;;4973865;28;20417;-63
2022/05/01 07:17:31;;;;;;;3.17;0.70;;;15.50;54.60;;;;;;4955027;28;20110;-65
2022/05/01 07:19:56;;;;;;;0.82;0.40;;;15.30;58.00;;;;;;4954370;28;20074;-66
2022/05/01 07:22:22;;;;;;;2.83;0.57;;;15.40;60.50;;;;;;4972351;28;20517;-66
2022/05/01 07:24:48;;;;;;;0.80;0.45;;;14.90;51.00;;;;;;4956146;28;20027;-67
2022/05/01 07:27:13;;;;;;;2.83;0.63;;;14.20;50.60;;;;;;4973325;28;20425;-67
2022/05/01 07:29:39;;;;;;;3.60;0.60;;;13.80;50.70;;;;;;4965119;28;20024;-64
2022/05/01 07:32:05;;;;;;;11.63;1.10;;;14.00;58.80;;;;;;4954149;29;20553;-64
2022/05/01 07:34:31;;;;;;;0.50;0.30;;;14.40;56.30;;;;;;4953659;29;20057;-64
2022/05/01 07:36:56;;;;;;;0.60;0.30;;;13.50;49.80;;;;;;4953720;28;20135;-64
2022/05/01 07:39:22;;;;;;;3.00;0.50;;;12.70;49.80;;;;;;4953841;29;20054;-64
2022/05/01 07:41:48;;;;;;;1.33;0.60;;;12.10;49.70;;;;;;4954178;29;20023;-64
2022/05/01 07:44:14;;;;;;;0.85;0.65;;;11.90;50.90;;;;;;4967648;28;20033;-64
2022/05/01 07:46:40;;;;;;;1.02;0.60;;;11.70;50.90;;;;;;4973212;28;20433;-64
2022/05/01 07:49:06;;;;;;;0.80;0.52;;;11.70;51.40;;;;;;4955799;28;20057;-64
2022/05/01 07:51:32;;;;;;;1.23;0.50;;;11.20;50.40;;;;;;4973228;28;20030;-64
2022/05/01 07:53:58;;;;;;;0.85;0.50;;;10.90;49.90;;;;;;4972916;28;20462;-64
2022/05/01 07:56:27;;;;;;;1.85;0.43;;;10.70;50.70;;;;;;4941412;28;20033;-64
2022/05/01 07:58:53;;;;;;;0.90;0.60;;;10.40;51.00;;;;;;4973348;28;20026;-64
2022/05/01 08:01:20;;;;;;;4.28;1.50;;;10.30;51.20;;;;;;4972953;28;20490;-64
2022/05/01 08:06:30;;;;;;;1.35;0.90;;;10.00;50.60;;;;;;4972946;28;20042;-64
2022/05/01 08:08:55;;;;;;;1.13;0.50;;;9.90;51.30;;;;;;4971918;28;20035;-64
2022/05/01 08:11:21;;;;;;;10.07;0.80;;;9.90;50.90;;;;;;4973183;28;20053;-64
2022/05/01 08:13:47;;;;;;;1.70;0.73;;;9.80;51.00;;;;;;4974052;28;20111;-64
2022/05/01 08:16:13;;;;;;;0.95;0.60;;;9.80;51.30;;;;;;4976851;28;20162;-64
2022/05/01 08:21:24;;;;;;;3.15;0.60;;;9.70;51.20;;;;;;4976913;28;20037;-64
2022/05/01 08:23:50;;;;;;;5.13;2.72;;;9.70;51.70;;;;;;4976837;28;20023;-64
2022/05/01 08:26:17;;;;;;;1.90;0.80;;;9.60;51.90;;;;;;4976593;28;20097;-64
2022/05/01 08:28:44;;;;;;;0.77;0.70;;;9.60;52.80;;;;;;4976222;28;20038;-64
2022/05/01 08:31:10;;;;;;;3.55;1.50;;;9.60;52.60;;;;;;4976790;28;20030;-64
2022/05/01 08:33:37;;;;;;;4.82;1.65;;;9.60;52.00;;;;;;4976411;28;20035;-64
2022/05/01 08:36:04;;;;;;;2.65;0.80;;;9.60;51.90;;;;;;4976766;28;20031;-64
2022/05/01 08:38:31;;;;;;;0.47;0.45;;;9.70;51.70;;;;;;4976130;28;20058;-64
2022/05/01 08:40:57;;;;;;;1.48;0.50;;;9.60;51.10;;;;;;4976578;28;20062;-64
2022/05/01 08:43:24;;;;;;;1.65;0.50;;;9.50;51.40;;;;;;4958859;28;20030;-64
2022/05/01 08:46:17;;;;;;;8.48;0.85;;;9.40;51.60;;;;;;4976369;28;20058;-64
2022/05/01 08:48:48;;;;;;;3.20;1.20;;;9.50;52.30;;;;;;4976292;28;20023;-64
2022/05/01 08:51:16;;;;;;;4.45;0.50;;;9.70;52.00;;;;;;4976089;28;20060;-64
2022/05/01 08:53:43;;;;;;;3.90;1.90;;;9.80;51.90;;;;;;4976341;28;20066;-64
2022/05/01 08:56:10;;;;;;;1.90;0.90;;;9.60;50.50;;;;;;4976000;28;20110;-64
2022/05/01 08:58:39;;;;;;;3.10;1.00;;;9.50;50.60;;;;;;4975813;28;20054;-64
2022/05/01 09:01:07;;;;;;;5.03;1.95;;;9.50;51.30;;;;;;4975785;28;20031;-64
2022/05/01 09:03:34;;;;;;;2.10;0.68;;;9.40;51.40;;;;;;4975914;28;20483;-64
2022/05/01 09:06:00;;;;;;;6.85;1.42;;;9.40;50.70;;;;;;4975988;28;20023;-63
2022/05/01 09:08:26;;;;;;;4.63;2.03;;;9.40;51.50;;;;;;4975779;28;20022;-64
2022/05/01 09:10:52;;;;;;;4.18;1.95;;;9.50;52.10;;;;;;4975922;28;20378;-64
2022/05/01 09:13:24;;;;;;;0.77;0.60;;;9.60;51.20;;;;;;4975642;28;20035;-64
2022/05/01 09:15:50;;;;;;;0.88;0.57;;;9.60;51.10;;;;;;4975926;28;20085;-63
2022/05/01 09:18:16;;;;;;;0.73;0.60;;;9.50;51.30;;;;;;4975706;28;20035;-64
2022/05/01 09:21:05;;;;;;;1.27;0.60;;;9.50;51.50;;;;;;4975832;28;20027;-64
2022/05/01 09:23:39;;;;;;;0.82;0.50;;;9.50;51.70;;;;;;4975624;28;20042;-64
2022/05/01 09:26:08;;;;;;;0.50;0.40;;;9.50;51.20;;;;;;4957548;28;20533;-64
2022/05/01 09:28:34;;;;;;;3.03;0.55;;;9.30;51.20;;;;;;4975584;28;20533;-64
2022/05/01 09:30:59;;;;;;;0.68;0.40;;;9.30;52.00;;;;;;4975678;28;20027;-64
2022/05/01 09:33:25;;;;;;;3.97;0.70;;;9.30;51.80;;;;;;4975612;28;20035;-63
2022/05/01 09:35:51;;;;;;;4.63;1.50;;;9.30;51.50;;;;;;4975628;28;20525;-64
2022/05/01 09:38:22;;;;;;;1.98;0.75;;;9.30;51.80;;;;;;4975127;28;20489;-64
2022/05/01 09:40:54;;;;;;;4.50;0.55;;;9.40;51.90;;;;;;4965355;28;20031;-64
2022/05/01 09:43:43;;;;;;;11.65;0.93;;;9.50;52.10;;;;;;4956106;29;20027;-64
2022/05/01 09:46:29;;;;;;;10.02;1.20;;;9.50;51.70;;;;;;4955248;29;20114;-64
2022/05/01 09:48:57;;;;;;;1.88;0.70;;;9.60;53.50;;;;;;4956182;28;20035;-63
2022/05/01 09:51:24;;;;;;;6.30;0.60;;;10.10;55.20;;;;;;4955723;29;20042;-64
2022/05/01 09:53:49;;;;;;;0.73;0.52;;;10.10;52.70;;;;;;4955771;29;20062;-65
2022/05/01 09:56:15;;;;;;;5.68;0.70;;;10.00;53.00;;;;;;4955697;29;20504;-65
2022/05/01 09:58:43;;;;;;;4.80;0.65;;;10.00;52.90;;;;;;4955957;29;20031;-65
2022/05/01 10:01:14;;;;;;;8.45;0.93;;;10.10;52.90;;;;;;4955774;29;20015;-65
2022/05/01 10:03:46;;;;;;;1.95;0.75;;;10.10;53.10;;;;;;4955447;29;20114;-63
2022/05/01 10:06:16;;;;;;;3.17;0.52;;;10.70;61.60;;;;;;4955527;29;20027;-65
2022/05/01 10:08:46;;;;;;;7.10;0.60;;;10.90;53.80;;;;;;4955492;29;20032;-65
2022/05/01 10:11:14;;;;;;;7.45;0.60;;;10.70;52.60;;;;;;4955350;29;20027;-66
2022/05/01 10:13:40;;;;;;;0.90;0.47;;;10.40;52.00;;;;;;4955198;29;20047;-64
2022/05/01 10:16:09;;;;;;;0.65;0.50;;;10.20;52.60;;;;;;4955603;29;20024;-65
2022/05/01 10:18:36;;;;;;;2.72;1.85;;;10.20;52.70;;;;;;4955188;29;20027;-67
2022/05/01 10:21:02;;;;;;;3.50;1.55;;;10.10;53.20;;;;;;4938120;29;20106;-67
2022/05/01 10:23:29;;;;;;;0.60;0.40;;;10.10;53.30;;;;;;4958789;28;20113;-67
2022/05/01 10:26:16;;;;;;;3.50;1.00;;;10.10;52.80;;;;;;4968731;28;20359;-66
2022/05/01 10:28:50;;;;;;;1.23;0.70;;;10.00;53.00;;;;;;4941242;29;20027;-65
2022/05/01 10:34:41;;;;;;;0.35;0.35;;;10.00;53.10;;;;;;4973183;28;20050;-65
2022/05/01 10:37:48;;;;;;;1.10;0.50;;;10.00;52.50;;;;;;4971233;28;20047;-63
2022/05/01 10:40:14;;;;;;;3.80;0.55;;;10.10;58.20;;;;;;4974350;28;20034;-65
2022/05/01 10:42:52;;;;;;;6.72;1.75;;;10.80;59.30;;;;;;4971549;28;20034;-65
2022/05/01 10:45:24;;;;;;;0.40;0.40;;;10.90;54.40;;;;;;4953525;29;20023;-65
2022/05/01 10:47:54;;;;;;;2.00;1.27;;;10.60;52.20;;;;;;4955023;29;20031;-65
2022/05/01 10:50:22;;;;;;;0.40;0.40;;;10.30;52.80;;;;;;4954655;29;20360;-65
2022/05/01 10:53:05;;;;;;;0.90;0.50;;;10.20;52.70;;;;;;4954800;29;20043;-65
2022/05/01 10:55:51;;;;;;;0.73;0.63;;;10.20;53.10;;;;;;4954601;29;20636;-65
2022/05/01 10:58:21;;;;;;;0.40;0.40;;;10.00;52.20;;;;;;4954816;29;20028;-64
2022/05/01 11:00:48;;;;;;;4.72;0.93;;;10.00;53.40;;;;;;4954720;29;20015;-65
2022/05/01 11:03:28;;;;;;;2.22;1.05;;;10.00;53.40;;;;;;4954769;29;20102;-65
2022/05/01 11:06:14;;;;;;;0.55;0.50;;;10.10;53.10;;;;;;4954877;29;20023;-65
2022/05/01 11:08:41;;;;;;;0.80;0.55;;;10.10;52.80;;;;;;4954186;29;20035;-65
2022/05/01 11:11:10;;;;;;;5.47;2.03;;;10.10;53.00;;;;;;4954512;28;20474;-65
2022/05/01 11:13:38;;;;;;;1.45;0.63;;;10.10;53.30;;;;;;4954363;29;20039;-65
2022/05/01 11:16:05;;;;;;;1.23;0.60;;;10.10;53.10;;;;;;4954467;29;20111;-65
2022/05/01 11:18:41;;;;;;;13.43;3.72;;;10.10;52.70;;;;;;4954245;29;20031;-65
2022/05/01 11:21:24;;;;;;;4.28;2.05;;;10.00;53.20;;;;;;4954377;29;20030;-65
2022/05/01 11:24:03;;;;;;;0.75;0.65;;;10.20;53.50;;;;;;4954210;29;20030;-65
2022/05/01 11:26:30;;;;;;;1.42;0.60;;;10.30;53.20;;;;;;4954279;29;20023;-65
2022/05/01 11:29:17;;;;;;;4.35;0.70;;;10.30;52.90;;;;;;4954370;29;20059;-65
2022/05/01 11:31:44;;;;;;;4.55;0.93;;;10.40;53.00;;;;;;4954091;29;20024;-65
2022/05/01 11:34:16;;;;;;;1.30;0.70;;;10.50;52.70;;;;;;4954003;29;20086;-65
2022/05/01 11:37:02;;;;;;;25.80;1.75;;;10.60;52.60;;;;;;4957586;28;20037;-65
2022/05/01 11:39:49;;;;;;;1.55;0.80;;;10.60;52.70;;;;;;4992656;28;20033;-65
2022/05/01 11:42:27;;;;;;;0.90;0.60;;;10.70;52.50;;;;;;4992782;28;20026;-65
2022/05/01 11:44:57;;;;;;;0.80;0.40;;;10.70;52.30;;;;;;4992591;28;20125;-65
2022/05/01 11:47:25;;;;;;;1.52;0.40;;;10.70;52.90;;;;;;4992350;28;20399;-65
2022/05/01 11:49:51;;;;;;;0.82;0.52;;;10.60;52.20;;;;;;4989403;28;20041;-65
2022/05/01 11:52:17;;;;;;;1.38;0.40;;;10.60;53.40;;;;;;4992387;28;20026;-65
2022/05/01 11:54:57;;;;;;;1.30;0.40;;;10.70;52.10;;;;;;4992370;28;20038;-63
2022/05/01 12:02:59;;;;;;;1.95;0.40;;;10.90;52.10;;;;;;4992045;28;20451;-66
2022/05/01 12:05:25;;;;;;;5.88;0.50;;;10.90;51.80;;;;;;4992398;28;20058;-67
2022/05/01 12:07:56;;;;;;;0.60;0.40;;;11.00;52.10;;;;;;4992382;28;20034;-68
2022/05/01 12:10:23;;;;;;;2.80;0.60;;;11.10;51.70;;;;;;4992236;28;20018;-67
2022/05/01 12:12:48;;;;;;;0.90;0.43;;;11.10;52.00;;;;;;4992317;28;20037;-69
2022/05/01 12:15:14;;;;;;;2.83;0.40;;;11.20;54.90;;;;;;4992366;28;20034;-67
2022/05/01 12:17:41;;;;;;;4.20;0.55;;;11.80;57.40;;;;;;4992475;28;20034;-67
2022/05/01 12:20:07;;;;;;;1.60;0.50;;;11.80;52.10;;;;;;4992286;28;20052;-67
2022/05/01 12:22:37;;;;;;;0.98;0.40;;;11.70;51.90;;;;;;4992183;28;20031;-67
2022/05/01 12:25:10;;;;;;;5.65;0.57;;;11.60;51.10;;;;;;4992647;28;20034;-67
2022/05/01 12:27:40;;;;;;;1.25;0.50;;;11.60;51.40;;;;;;4992335;28;20553;-67
2022/05/01 12:30:08;;;;;;;0.52;0.35;;;11.50;51.20;;;;;;4992318;28;20105;-67
2022/05/01 12:32:35;;;;;;;0.75;0.40;;;11.40;51.20;;;;;;4991990;28;20498;-67
2022/05/01 12:35:03;;;;;;;3.15;0.70;;;11.40;51.60;;;;;;4992477;28;20114;-67
2022/05/01 12:37:34;;;;;;;2.30;0.60;;;11.40;51.50;;;;;;4983611;28;20086;-67
2022/05/01 12:40:02;;;;;;;1.13;0.52;;;11.50;51.50;;;;;;4972745;28;20459;-67
2022/05/01 12:45:20;;;;;;;0.75;0.50;;;11.50;51.80;;;;;;4968796;28;20082;-66
2022/05/01 12:47:53;;;;;;;1.15;0.45;;;11.50;51.80;;;;;;4971091;28;20027;-65
2022/05/01 12:50:18;;;;;;;1.65;0.52;;;11.60;52.20;;;;;;4972422;28;20081;-66
2022/05/01 12:52:46;;;;;;;0.82;0.82;;;11.60;51.60;;;;;;4971929;28;20510;-66
2022/05/01 12:55:17;;;;;;;3.95;0.43;;;11.70;52.00;;;;;;4972614;28;20470;-66
2022/05/01 12:57:50;;;;;;;4.13;0.50;;;11.70;52.50;;;;;;4963495;28;20031;-65
2022/05/01 13:00:32;;;;;;;2.42;0.40;;;11.80;52.20;;;;;;4953800;28;20545;-65
2022/05/01 13:03:19;;;;;;;1.50;0.50;;;11.80;52.10;;;;;;4957115;29;20031;-65
2022/05/01 13:05:58;;;;;;;3.05;0.82;;;11.90;52.10;;;;;;4956526;29;20030;-65
2022/05/01 13:08:24;;;;;;;0.40;0.30;;;11.90;51.80;;;;;;4956806;29;20106;-65
2022/05/01 13:11:08;;;;;;;0.90;0.55;;;11.90;51.90;;;;;;4956902;29;20493;-64
2022/05/01 13:13:46;;;;;;;1.77;0.55;;;12.00;51.80;;;;;;4956511;29;20043;-64
2022/05/01 13:16:13;;;;;;;2.20;0.50;;;12.10;52.10;;;;;;4956624;29;20023;-64
2022/05/01 13:18:39;;;;;;;1.00;0.45;;;12.10;51.80;;;;;;4956532;29;20035;-64
2022/05/01 13:21:06;;;;;;;3.58;0.50;;;12.10;51.50;;;;;;4956408;29;20122;-64
2022/05/01 13:23:31;;;;;;;12.27;0.75;;;12.10;51.30;;;;;;4956364;29;20438;-64
2022/05/01 13:25:58;;;;;;;4.45;0.73;;;12.00;52.80;;;;;;4971215;28;20035;-64
2022/05/01 13:28:23;;;;;;;3.05;0.50;;;12.10;51.80;;;;;;4975750;28;20649;-65
2022/05/01 13:30:49;;;;;;;4.18;0.40;;;12.00;51.80;;;;;;4975789;28;20027;-65
2022/05/01 13:33:15;;;;;;;0.60;0.40;;;11.90;51.80;;;;;;4975498;28;20479;-65
2022/05/01 13:35:41;;;;;;;0.50;0.40;;;11.80;51.90;;;;;;4975340;28;20033;-65
2022/05/01 13:38:06;;;;;;;2.10;0.52;;;11.80;52.30;;;;;;4975459;28;20086;-65
2022/05/01 13:46:00;;;;;;;1.00;0.60;;;11.90;52.60;;;;;;4958615;28;20391;-64
2022/05/01 13:48:27;;;;;;;5.30;0.50;;;11.90;52.60;;;;;;4956107;29;20023;-64
2022/05/01 13:50:52;;;;;;;0.60;0.40;;;11.90;52.70;;;;;;4956090;29;20046;-64
2022/05/01 13:53:18;;;;;;;0.38;0.38;;;12.00;52.60;;;;;;4946756;28;20490;-64
2022/05/01 13:55:44;;;;;;;1.52;0.40;;;12.00;52.70;;;;;;4975031;28;20022;-64
2022/05/01 13:58:09;;;;;;;1.75;0.40;;;12.00;53.10;;;;;;4975239;28;20525;-64
2022/05/01 14:00:35;;;;;;;2.15;0.50;;;12.00;53.40;;;;;;4975056;28;20544;-64
2022/05/01 14:03:07;;;;;;;0.47;0.35;;;12.00;53.60;;;;;;4975001;28;20339;-64
2022/05/01 14:05:39;;;;;;;0.50;0.40;;;12.10;53.90;;;;;;4974957;28;20035;-64
2022/05/01 14:08:07;;;;;;;3.05;0.80;;;12.10;54.30;;;;;;4974947;28;20026;-64
2022/05/01 14:10:34;;;;;;;0.98;0.70;;;12.10;54.60;;;;;;4974972;28;20375;-64
2022/05/01 14:13:00;;;;;;;2.55;0.88;;;12.10;54.60;;;;;;4974587;28;20043;-64
2022/05/01 14:15:26;;;;;;;0.82;0.57;;;12.00;54.80;;;;;;4974829;28;20031;-64
2022/05/01 14:17:55;;;;;;;1.55;0.55;;;12.00;54.90;;;;;;4974455;28;20034;-64
2022/05/01 14:20:22;;;;;;;0.65;0.38;;;11.90;55.20;;;;;;4964398;28;20030;-65
2022/05/01 14:22:49;;;;;;;1.48;0.50;;;11.80;55.50;;;;;;4954613;29;20501;-66
2022/05/01 14:25:15;;;;;;;5.32;0.47;;;11.80;56.00;;;;;;4954615;29;20115;-66
2022/05/01 14:27:41;;;;;;;0.70;0.28;;;11.80;56.80;;;;;;4947777;29;20030;-66
2022/05/01 14:30:08;;;;;;;0.68;0.40;;;11.80;57.40;;;;;;4956430;28;20026;-66
2022/05/01 14:32:51;;;;;;;1.00;0.50;;;11.80;57.80;;;;;;4956607;28;20031;-66